createdAt,value
2023-01-11T00:01:38.082Z,11.80
2023-01-11T00:06:40.621Z,9.40
2023-01-11T00:11:43.512Z,7.90
2023-01-11T00:16:46.156Z,9.50
2023-01-11T00:21:49.677Z,12.50
2023-01-11T00:26:52.405Z,13.20
2023-01-11T00:31:55.187Z,8.70
2023-01-11T00:36:58.186Z,7.70
2023-01-11T00:42:19.632Z,13.00
2023-01-11T00:47:41.093Z,8.50
2023-01-11T00:52:43.586Z,6.10
2023-01-11T00:57:46.289Z,10.10
2023-01-11T01:02:49.970Z,8.20
2023-01-11T01:07:52.704Z,12.50
2023-01-11T01:13:14.078Z,9.90
2023-01-11T01:18:16.692Z,7.80
2023-01-11T01:23:19.209Z,7.20
2023-01-11T01:28:22.352Z,6.80
2023-01-11T01:33:25.165Z,7.50
2023-01-11T01:38:28.333Z,6.60
2023-01-11T01:43:51.654Z,8.30
2023-01-11T01:49:01.871Z,8.00
2023-01-11T01:54:08.308Z,8.50
2023-01-11T01:59:15.527Z,9.60
2023-01-11T02:04:26.664Z,7.70
2023-01-11T02:09:38.816Z,8.60
2023-01-11T02:14:43.176Z,7.50
2023-01-11T02:20:17.824Z,6.10
2023-01-11T02:25:52.598Z,7.10
2023-01-11T02:31:16.096Z,6.30
2023-01-11T02:36:37.746Z,11.40
2023-01-11T02:42:17.900Z,9.10
2023-01-11T02:47:30.226Z,9.00
2023-01-11T02:52:39.899Z,7.30
2023-01-11T02:57:44.960Z,6.10
2023-01-11T03:02:47.509Z,8.10
2023-01-11T03:08:31.160Z,6.50
2023-01-11T03:14:01.589Z,5.10
2023-01-11T03:19:26.283Z,5.40
2023-01-11T03:24:45.781Z,5.30
2023-01-11T03:30:07.881Z,7.00
2023-01-11T03:35:37.852Z,7.30
2023-01-11T03:40:46.649Z,5.50
2023-01-11T03:46:05.543Z,4.50
2023-01-11T03:51:12.533Z,8.50
2023-01-11T03:56:20.207Z,6.20
2023-01-11T04:01:24.560Z,7.20
2023-01-11T04:06:27.178Z,4.70
2023-01-11T04:11:29.790Z,5.50
2023-01-11T04:16:32.343Z,4.40
2023-01-11T04:21:35.051Z,7.30
2023-01-11T04:26:37.588Z,4.10
2023-01-11T04:31:40.222Z,5.10
2023-01-11T04:36:42.810Z,5.10
2023-01-11T04:42:04.214Z,4.70
2023-01-11T04:47:06.719Z,3.80
2023-01-11T04:52:14.713Z,5.20
2023-01-11T04:57:17.689Z,5.70
2023-01-11T05:02:20.371Z,8.10
2023-01-11T05:07:22.923Z,5.10
2023-01-11T05:12:25.498Z,5.30
2023-01-11T05:17:28.241Z,6.00
2023-01-11T05:22:30.868Z,7.80
2023-01-11T05:27:33.599Z,4.50
2023-01-11T05:32:36.306Z,4.10
2023-01-11T05:37:39.013Z,4.90
2023-01-11T05:42:41.689Z,4.10
2023-01-11T05:47:44.188Z,4.00
2023-01-11T05:52:47.128Z,6.00
2023-01-11T05:57:51.079Z,4.50
2023-01-11T06:02:54.259Z,5.40
2023-01-11T06:07:57.225Z,3.70
2023-01-11T06:13:18.669Z,4.90
2023-01-11T06:18:21.527Z,4.90
2023-01-11T06:23:25.605Z,4.70
2023-01-11T06:28:28.230Z,3.20
2023-01-11T06:33:31.454Z,4.00
2023-01-11T06:38:34.925Z,5.10
2023-01-11T06:43:42.210Z,4.60
2023-01-11T06:48:46.241Z,6.00
2023-01-11T06:53:48.829Z,4.40
2023-01-11T06:58:52.605Z,4.70
2023-01-11T07:03:55.470Z,3.40
2023-01-11T07:08:58.541Z,4.20
2023-01-11T07:14:01.146Z,5.40
2023-01-11T07:19:03.736Z,5.30
2023-01-11T07:24:06.494Z,7.80
2023-01-11T07:29:09.195Z,4.20
2023-01-11T07:34:12.195Z,5.10
2023-01-11T07:39:15.489Z,4.60
2023-01-11T07:44:18.463Z,4.90
2023-01-11T07:49:21.278Z,3.70
2023-01-11T07:54:24.795Z,3.70
2023-01-11T07:59:27.330Z,3.80
2023-01-11T08:04:30.236Z,3.60
2023-01-11T08:09:32.847Z,5.90
2023-01-11T08:14:41.323Z,3.50
2023-01-11T08:19:43.950Z,3.10
2023-01-11T08:24:46.620Z,3.00
2023-01-11T08:29:49.176Z,3.60
2023-01-11T08:34:51.739Z,5.10
2023-01-11T08:39:55.941Z,5.50
2023-01-11T08:44:58.626Z,4.80
2023-01-11T08:50:01.213Z,5.00
2023-01-11T08:55:07.693Z,6.20
2023-01-11T09:00:11.312Z,3.50
2023-01-11T09:05:13.942Z,4.90
2023-01-11T09:10:16.516Z,5.60
2023-01-11T09:15:19.631Z,6.30
2023-01-11T09:20:23.873Z,3.80
2023-01-11T09:25:26.578Z,5.20
2023-01-11T09:30:29.349Z,4.90
2023-01-11T09:35:32.006Z,5.40
2023-01-11T09:40:49.374Z,3.80
2023-01-11T09:45:53.183Z,3.30
2023-01-11T09:50:57.722Z,5.40
2023-01-11T09:56:05.079Z,4.80
2023-01-11T10:01:46.215Z,4.20
2023-01-11T10:07:12.480Z,3.70
2023-01-11T10:18:49.341Z,4.20
2023-01-11T10:24:12.076Z,4.80
2023-01-11T10:29:30.314Z,2.90
2023-01-11T10:34:52.389Z,3.80
2023-01-11T10:40:39.833Z,3.20
2023-01-11T10:45:50.754Z,6.00
2023-01-11T10:51:17.759Z,3.00
2023-01-11T10:57:02.953Z,2.90
2023-01-11T11:02:13.534Z,3.40
2023-01-11T11:07:25.991Z,3.30
2023-01-11T11:12:31.700Z,3.60
2023-01-11T11:17:36.925Z,4.70
2023-01-11T11:22:39.483Z,4.40
2023-01-11T11:27:47.727Z,5.40
2023-01-11T11:32:59.797Z,3.20
2023-01-11T11:43:22.235Z,3.90
2023-01-11T11:48:27.408Z,3.30
2023-01-11T11:53:35.503Z,2.50
2023-01-11T11:58:41.147Z,3.30
2023-01-11T12:03:43.836Z,3.30
2023-01-11T12:08:46.487Z,4.00
2023-01-11T12:14:02.176Z,5.00
2023-01-11T12:19:50.677Z,2.80
2023-01-11T12:25:05.867Z,2.80
2023-01-11T12:30:46.452Z,3.40
2023-01-11T12:36:03.147Z,3.90
2023-01-11T12:41:42.663Z,3.00
2023-01-11T12:47:04.199Z,4.00
2023-01-11T12:52:12.696Z,4.40
2023-01-11T12:57:34.092Z,6.00
2023-01-11T13:02:55.090Z,2.90
2023-01-11T13:08:16.387Z,2.80
2023-01-11T13:13:29.803Z,4.90
2023-01-11T13:18:59.380Z,4.10
2023-01-11T13:24:12.369Z,4.10
2023-01-11T13:29:37.708Z,2.80
2023-01-11T13:34:47.547Z,3.90
2023-01-11T13:39:57.034Z,1.90
2023-01-11T13:45:09.248Z,5.20
2023-01-11T13:56:09.841Z,3.10
2023-01-11T14:01:17.564Z,2.80
2023-01-11T14:06:42.006Z,2.50
2023-01-11T14:12:05.429Z,2.50
2023-01-11T14:17:24.579Z,3.50
2023-01-11T14:22:41.347Z,3.00
2023-01-11T14:27:59.192Z,4.10
2023-01-11T14:33:36.710Z,3.10
2023-01-11T14:39:15.722Z,5.20
2023-01-11T14:44:32.914Z,4.00
2023-01-11T14:49:57.959Z,4.30
2023-01-11T14:55:05.348Z,3.40
2023-01-11T15:00:34.311Z,1.70
2023-01-11T15:05:54.648Z,1.50
2023-01-11T15:11:02.233Z,2.50
2023-01-11T15:16:28.370Z,3.10
2023-01-11T15:21:35.627Z,3.90
2023-01-11T15:26:48.730Z,2.20
2023-01-11T15:31:54.266Z,3.70
2023-01-11T15:36:59.939Z,3.00
2023-01-11T15:42:16.167Z,3.40
2023-01-11T15:47:42.605Z,1.30
2023-01-11T15:53:17.749Z,2.50
2023-01-11T15:58:45.723Z,1.90
2023-01-11T16:04:00.412Z,4.00
2023-01-11T16:09:41.968Z,2.50
2023-01-11T16:14:56.501Z,3.40
2023-01-11T16:20:18.934Z,3.00
2023-01-11T16:25:25.045Z,3.00
2023-01-11T16:30:28.811Z,3.40
2023-01-11T16:35:31.344Z,5.70
2023-01-11T16:40:37.752Z,4.00
2023-01-11T16:45:43.543Z,5.20
2023-01-11T16:50:50.994Z,5.10
2023-01-11T16:56:09.588Z,4.60
2023-01-11T17:01:15.327Z,2.80
2023-01-11T17:06:22.038Z,3.40
2023-01-11T17:11:39.574Z,3.00
2023-01-11T17:16:49.093Z,3.50
2023-01-11T17:22:05.279Z,3.70
2023-01-11T17:27:18.454Z,5.70
2023-01-11T17:32:35.565Z,6.10
2023-01-11T17:37:39.072Z,4.10
2023-01-11T17:43:00.161Z,4.50
2023-01-11T17:48:12.934Z,4.60
2023-01-11T17:53:20.977Z,5.60
2023-01-11T17:58:28.773Z,6.80
2023-01-11T18:03:38.940Z,9.80
2023-01-11T18:08:47.899Z,8.20
2023-01-11T18:13:52.890Z,8.80
2023-01-11T18:18:56.021Z,7.70
2023-01-11T18:24:07.792Z,8.80
2023-01-11T18:29:42.289Z,7.60
2023-01-11T18:34:48.068Z,7.20
2023-01-11T18:39:52.383Z,8.00
2023-01-11T18:44:55.119Z,7.20
2023-01-11T18:49:58.029Z,8.40
2023-01-11T18:55:00.589Z,6.80
2023-01-11T19:00:03.683Z,7.50
2023-01-11T19:05:09.995Z,6.00
2023-01-11T19:10:19.241Z,5.80
2023-01-11T19:15:21.808Z,7.30
2023-01-11T19:20:24.690Z,6.20
2023-01-11T19:25:28.336Z,8.30
2023-01-11T19:30:31.394Z,6.70
2023-01-11T19:35:33.951Z,6.50
2023-01-11T19:40:36.634Z,7.70
2023-01-11T19:45:39.325Z,9.70
2023-01-11T19:50:42.072Z,9.30
2023-01-11T19:55:44.721Z,8.80
2023-01-11T20:00:47.418Z,10.90
2023-01-11T20:05:50.430Z,8.90
2023-01-11T20:10:53.705Z,10.30
2023-01-11T20:15:56.337Z,8.70
2023-01-11T20:20:59.350Z,10.50
2023-01-11T20:26:04.440Z,9.30
2023-01-11T20:31:07.850Z,9.70
2023-01-11T20:36:16.208Z,7.50
2023-01-11T20:41:41.667Z,5.70
2023-01-11T20:46:47.873Z,9.70
2023-01-11T20:51:51.016Z,8.60
2023-01-11T20:56:53.755Z,10.20
2023-01-11T21:01:56.353Z,9.50
2023-01-11T21:06:58.967Z,7.40
2023-01-11T21:12:01.587Z,8.40
2023-01-11T21:17:04.269Z,8.90
2023-01-11T21:22:07.610Z,9.00
2023-01-11T21:27:10.573Z,9.20
2023-01-11T21:32:13.165Z,8.10
2023-01-11T21:37:15.864Z,9.10
2023-01-11T21:42:19.183Z,10.60
2023-01-11T21:47:22.279Z,7.20
2023-01-11T21:52:25.010Z,10.10
2023-01-11T21:57:27.698Z,11.90
2023-01-11T22:02:30.240Z,7.80
2023-01-11T22:07:33.389Z,10.50
2023-01-11T22:12:36.143Z,10.20
2023-01-11T22:17:39.101Z,7.80
2023-01-11T22:22:41.851Z,7.70
2023-01-11T22:27:44.526Z,12.10
2023-01-11T22:32:47.975Z,11.00
2023-01-11T22:37:50.663Z,12.40
2023-01-11T22:42:53.274Z,12.80
2023-01-11T22:47:59.179Z,11.30
2023-01-11T22:53:02.217Z,13.10
2023-01-11T22:58:05.083Z,13.40
2023-01-11T23:03:07.912Z,9.50
2023-01-11T23:08:10.768Z,13.80
2023-01-11T23:13:32.209Z,14.80
2023-01-11T23:18:34.724Z,11.10
2023-01-11T23:23:40.409Z,14.30
2023-01-11T23:28:43.025Z,16.50
2023-01-11T23:33:51.869Z,14.00
2023-01-11T23:38:54.398Z,14.00
2023-01-11T23:43:57.895Z,9.00
2023-01-11T23:49:03.807Z,10.10
2023-01-11T23:54:06.997Z,12.20
2023-01-11T23:59:09.792Z,9.60
